Terminal Aerodrome Forecast
Issued by NWS

Home | Current Version | Previous Version | Text Only | Print | Product List | Glossary On
Versions: 1 2 3 4 5 6 7 8 9 10 11 12 13 14 15 16 17
888
FTUS42 KILM 281924 CCC
TAFCRE
TAF COR
KCRE 281924Z 2818/2918 20012KT P6SM SCT040
     FM282200 24010KT P6SM SCT150 PROB30 2903/2904 4SM -TSRA
      SCT040CB BKN250=

USA.gov is the U.S. government's official web portal to all federal, state and local government web resources and services.